No particular awareness of the weather is required.    There are no Weather-warnings


Meteo18 Weather Cam more information Meteo18 Weather Cam


Thunder radar more information blitzortung!


Rain radar more information rain snow radar


Visit our other weather sites:

Template documentation
and downloads

And another site



Weather Underground History page Text

Daily Summary for November 21, 2017 Units:  Metric    English   Both
« Previous Day
Next Day »
Daily Weekly Monthly Yearly Custom
  High: Low: Average:
Temperature: 11.4 °C 3.3 °C 7.1 °C
Dew Point: 8.8 °C 2.9 °C 5.9 °C
Humidity: 100 % 78 % 93 %
Wind Speed: 9.7 km/h 0.0 km/h 1.9 km/h
Wind Gust: 16.1 km/h - -
Wind:- - SW
Pressure: 1022.6 hPa 1017.2 hPa -
Precipitation: 0.0 mm    
Historical Graphs
 
 
Tabular Data for November 21, 2017
Time Temperature Dew Point Pressure Wind Wind Speed Wind Gust Humidity Rainfall Rate (Hourly)
00:02 6.3 °C 5.6 °C 1022.6 hPa Calm   8.0 km/h 95 % 0.0 mm
00:12 6.2 °C 5.5 °C 1022.6 hPa Calm   3.2 km/h 95 % 0.0 mm
00:22 6.0 °C 5.3 °C 1022.6 hPa Calm   3.2 km/h 95 % 0.0 mm
00:32 6.2 °C 5.5 °C 1022.6 hPa SSE 1.6 km/h 3.2 km/h 95 % 0.0 mm
00:52 6.3 °C 5.7 °C 1022.2 hPa SW 4.8 km/h 8.0 km/h 96 % 0.0 mm
01:12 6.6 °C 6.2 °C 1022.2 hPa SSW 3.2 km/h 11.3 km/h 97 % 0.0 mm
01:17 6.8 °C 6.4 °C 1022.2 hPa SW 6.4 km/h 11.3 km/h 97 % 0.0 mm
01:27 7.0 °C 6.6 °C 1022.2 hPa SW 4.8 km/h 14.5 km/h 97 % 0.0 mm
01:32 7.1 °C 6.7 °C 1022.2 hPa SW 9.7 km/h 14.5 km/h 97 % 0.0 mm
01:37 7.2 °C 6.8 °C 1022.2 hPa West 4.8 km/h 14.5 km/h 97 % 0.0 mm
01:42 7.2 °C 6.8 °C 1022.2 hPa SW 1.6 km/h 14.5 km/h 97 % 0.0 mm
01:52 7.3 °C 6.9 °C 1022.2 hPa West 3.2 km/h 14.5 km/h 97 % 0.0 mm
02:02 7.3 °C 6.9 °C 1022.2 hPa WSW 1.6 km/h 8.0 km/h 97 % 0.0 mm
02:07 7.3 °C 6.9 °C 1022.2 hPa Calm   8.0 km/h 97 % 0.0 mm
02:17 7.3 °C 6.9 °C 1022.2 hPa Calm   4.8 km/h 97 % 0.0 mm
02:22 7.3 °C 6.9 °C 1022.2 hPa Calm   3.2 km/h 97 % 0.0 mm
02:32 7.2 °C 6.8 °C 1021.9 hPa SSE 1.6 km/h 3.2 km/h 97 % 0.0 mm
02:37 7.2 °C 6.8 °C 1021.9 hPa Calm   3.2 km/h 97 % 0.0 mm
02:42 7.3 °C 6.9 °C 1022.2 hPa Calm   3.2 km/h 97 % 0.0 mm
02:57 7.3 °C 6.9 °C 1021.9 hPa SW 3.2 km/h 3.2 km/h 97 % 0.0 mm
03:02 7.3 °C 6.9 °C 1021.9 hPa WSW 1.6 km/h 4.8 km/h 97 % 0.0 mm
03:07 7.4 °C 7.0 °C 1021.9 hPa SW 1.6 km/h 4.8 km/h 97 % 0.0 mm
03:12 6.8 °C 6.8 °C 1021.9 hPa WSW 6.4 km/h 6.4 km/h 100 % 0.0 mm
08:47 3.3 °C 2.9 °C 1021.6 hPa SSW 1.6 km/h 4.8 km/h 97 % 0.0 mm
08:52 3.3 °C 2.9 °C 1021.6 hPa SSW 1.6 km/h 4.8 km/h 97 % 0.0 mm
08:57 3.3 °C 2.9 °C 1021.6 hPa SSW 1.6 km/h 8.0 km/h 97 % 0.0 mm
09:02 3.4 °C 3.0 °C 1021.6 hPa SSW 3.2 km/h 8.0 km/h 97 % 0.0 mm
09:12 3.4 °C 3.0 °C 1021.6 hPa South 4.8 km/h 8.0 km/h 97 % 0.0 mm
09:17 3.4 °C 3.0 °C 1021.6 hPa SW 3.2 km/h 6.4 km/h 97 % 0.0 mm
09:22 3.3 °C 2.9 °C 1021.6 hPa SSW 3.2 km/h 4.8 km/h 97 % 0.0 mm
09:32 3.4 °C 3.0 °C 1021.6 hPa SSW 6.4 km/h 6.4 km/h 97 % 0.0 mm
09:37 3.4 °C 3.0 °C 1021.6 hPa SW 3.2 km/h 4.8 km/h 97 % 0.0 mm
09:42 3.4 °C 3.0 °C 1021.6 hPa SSW 1.6 km/h 6.4 km/h 97 % 0.0 mm
09:52 3.6 °C 3.2 °C 1021.6 hPa SSW 3.2 km/h 6.4 km/h 97 % 0.0 mm
09:57 3.6 °C 3.2 °C 1021.6 hPa WSW 4.8 km/h 4.8 km/h 97 % 0.0 mm
10:02 3.6 °C 3.2 °C 1021.6 hPa SSW 1.6 km/h 4.8 km/h 97 % 0.0 mm
10:17 3.7 °C 3.3 °C 1021.6 hPa Calm   6.4 km/h 97 % 0.0 mm
10:22 3.8 °C 3.5 °C 1021.6 hPa South 1.6 km/h 6.4 km/h 98 % 0.0 mm
10:32 3.9 °C 3.6 °C 1021.6 hPa SSW 4.8 km/h 4.8 km/h 98 % 0.0 mm
10:42 3.9 °C 3.5 °C 1021.2 hPa SSW 3.2 km/h 8.0 km/h 97 % 0.0 mm
10:47 4.0 °C 3.6 °C 1021.2 hPa Calm   8.0 km/h 97 % 0.0 mm
10:52 4.1 °C 3.8 °C 1021.2 hPa SSW 3.2 km/h 8.0 km/h 98 % 0.0 mm
11:02 4.1 °C 3.7 °C 1021.2 hPa SW 1.6 km/h 6.4 km/h 97 % 0.0 mm
11:12 4.2 °C 3.8 °C 1021.2 hPa Calm   6.4 km/h 97 % 0.0 mm
11:17 4.3 °C 3.9 °C 1021.2 hPa SW 1.6 km/h 6.4 km/h 97 % 0.0 mm
11:22 4.4 °C 4.0 °C 1021.2 hPa Calm   4.8 km/h 97 % 0.0 mm
11:42 4.9 °C 4.6 °C 1021.2 hPa SSE 1.6 km/h 3.2 km/h 98 % 0.0 mm
11:47 5.1 °C 4.8 °C 1020.9 hPa SW 1.6 km/h 6.4 km/h 98 % 0.0 mm
11:52 5.3 °C 5.0 °C 1020.9 hPa SSW 4.8 km/h 6.4 km/h 98 % 0.0 mm
11:57 5.6 °C 5.3 °C 1020.9 hPa SSW 1.6 km/h 6.4 km/h 98 % 0.0 mm
12:02 5.7 °C 5.4 °C 1020.9 hPa SE 1.6 km/h 6.4 km/h 98 % 0.0 mm
12:12 6.1 °C 5.8 °C 1020.5 hPa Calm   6.4 km/h 98 % 0.0 mm
12:32 7.3 °C 7.0 °C 1020.2 hPa Calm   4.8 km/h 98 % 0.0 mm
12:52 8.3 °C 8.0 °C 1019.9 hPa SSW 1.6 km/h 4.8 km/h 98 % 0.0 mm
13:02 8.7 °C 8.4 °C 1019.9 hPa WSW 4.8 km/h 6.4 km/h 98 % 0.0 mm
13:12 9.1 °C 8.8 °C 1019.9 hPa SSW 4.8 km/h 8.0 km/h 98 % 0.0 mm
13:17 9.3 °C 8.8 °C 1019.9 hPa SW 8.0 km/h 9.7 km/h 97 % 0.0 mm
13:22 9.4 °C 8.8 °C 1019.5 hPa South 3.2 km/h 11.3 km/h 96 % 0.0 mm
13:32 9.9 °C 8.7 °C 1019.5 hPa WSW 8.0 km/h 11.3 km/h 92 % 0.0 mm
13:47 10.8 °C 7.9 °C 1019.2 hPa WSW 6.4 km/h 16.1 km/h 82 % 0.0 mm
13:52 10.9 °C 7.8 °C 1019.2 hPa WSW 8.0 km/h 16.1 km/h 81 % 0.0 mm
13:57 10.9 °C 7.6 °C 1019.2 hPa SW 6.4 km/h 16.1 km/h 80 % 0.0 mm
14:02 11.2 °C 8.2 °C 1019.2 hPa SSW 8.0 km/h 16.1 km/h 82 % 0.0 mm
14:07 11.2 °C 7.5 °C 1019.2 hPa SW 8.0 km/h 16.1 km/h 78 % 0.0 mm
14:12 11.3 °C 7.6 °C 1019.2 hPa West 8.0 km/h 16.1 km/h 78 % 0.0 mm
14:22 11.2 °C 7.5 °C 1019.2 hPa SW 6.4 km/h 16.1 km/h 78 % 0.0 mm
14:32 11.2 °C 7.5 °C 1019.2 hPa West 3.2 km/h 16.1 km/h 78 % 0.0 mm
14:42 11.3 °C 7.6 °C 1018.8 hPa SW 4.8 km/h 6.4 km/h 78 % 0.0 mm
15:02 11.4 °C 7.9 °C 1018.8 hPa WSW 4.8 km/h 9.7 km/h 79 % 0.0 mm
15:12 11.2 °C 7.9 °C 1018.8 hPa SSW 3.2 km/h 9.7 km/h 80 % 0.0 mm
15:22 11.1 °C 8.3 °C 1018.5 hPa SW 3.2 km/h 9.7 km/h 83 % 0.0 mm
15:27 11.0 °C 8.2 °C 1018.5 hPa WSW 1.6 km/h 8.0 km/h 83 % 0.0 mm
15:32 10.9 °C 7.9 °C 1018.8 hPa SW 1.6 km/h 4.8 km/h 82 % 0.0 mm
15:37 10.9 °C 7.8 °C 1018.5 hPa WSW 1.6 km/h 4.8 km/h 81 % 0.0 mm
15:42 10.9 °C 7.8 °C 1018.5 hPa SW 4.8 km/h 4.8 km/h 81 % 0.0 mm
15:47 10.9 °C 7.8 °C 1018.5 hPa SW 1.6 km/h 4.8 km/h 81 % 0.0 mm
15:52 10.9 °C 7.9 °C 1018.5 hPa SW 3.2 km/h 4.8 km/h 82 % 0.0 mm
15:57 10.8 °C 7.9 °C 1018.5 hPa WSW 1.6 km/h 4.8 km/h 82 % 0.0 mm
16:02 10.8 °C 7.9 °C 1018.8 hPa WSW 1.6 km/h 4.8 km/h 82 % 0.0 mm
16:12 10.8 °C 7.7 °C 1018.5 hPa SW 1.6 km/h 6.4 km/h 81 % 0.0 mm
16:17 10.7 °C 7.8 °C 1018.5 hPa SSW 1.6 km/h 6.4 km/h 82 % 0.0 mm
16:27 10.5 °C 7.7 °C 1018.5 hPa SW 1.6 km/h 4.8 km/h 83 % 0.0 mm
16:32 10.3 °C 7.7 °C 1018.5 hPa Calm   3.2 km/h 84 % 0.0 mm
16:37 10.2 °C 7.8 °C 1018.5 hPa Calm   3.2 km/h 85 % 0.0 mm
16:42 10.1 °C 7.9 °C 1018.2 hPa Calm   1.6 km/h 86 % 0.0 mm
16:47 9.8 °C 7.6 °C 1018.2 hPa Calm   1.6 km/h 86 % 0.0 mm
16:52 9.7 °C 7.6 °C 1018.2 hPa Calm   1.6 km/h 87 % 0.0 mm
17:02 9.3 °C 7.4 °C 1018.2 hPa Calm   1.6 km/h 88 % 0.0 mm
17:12 9.0 °C 7.4 °C 1018.2 hPa SW 1.6 km/h 1.6 km/h 90 % 0.0 mm
17:17 8.9 °C 7.3 °C 1018.2 hPa Calm   1.6 km/h 90 % 0.0 mm
17:22 9.0 °C 7.3 °C 1017.8 hPa Calm   3.2 km/h 89 % 0.0 mm
17:37 8.7 °C 7.0 °C 1017.8 hPa Calm   3.2 km/h 89 % 0.0 mm
17:42 8.7 °C 7.2 °C 1018.2 hPa Calm   1.6 km/h 90 % 0.0 mm
17:57 8.7 °C 7.3 °C 1018.2 hPa Calm   1.6 km/h 91 % 0.0 mm
18:02 8.7 °C 7.2 °C 1018.2 hPa Calm   1.6 km/h 90 % 0.0 mm
18:07 8.3 °C 6.8 °C 1017.8 hPa Calm   3.2 km/h 90 % 0.0 mm
18:17 7.9 °C 6.5 °C 1017.8 hPa Calm   3.2 km/h 91 % 0.0 mm
18:22 7.8 °C 6.4 °C 1018.2 hPa Calm   4.8 km/h 91 % 0.0 mm
18:27 7.5 °C 6.3 °C 1018.2 hPa Calm   4.8 km/h 92 % 0.0 mm
18:52 7.5 °C 6.3 °C 1017.8 hPa Calm   3.2 km/h 92 % 0.0 mm
19:02 7.2 °C 6.1 °C 1018.2 hPa WNW 3.2 km/h 3.2 km/h 93 % 0.0 mm
19:07 7.1 °C 6.0 °C 1018.2 hPa NNE 1.6 km/h 3.2 km/h 93 % 0.0 mm
19:17 7.1 °C 6.4 °C 1017.8 hPa Calm   4.8 km/h 95 % 0.0 mm
19:22 7.3 °C 6.6 °C 1017.8 hPa Calm   4.8 km/h 95 % 0.0 mm
19:27 7.2 °C 6.3 °C 1017.8 hPa Calm   3.2 km/h 94 % 0.0 mm
19:37 6.8 °C 5.7 °C 1017.8 hPa Calm   1.6 km/h 93 % 0.0 mm
19:42 6.7 °C 5.8 °C 1017.8 hPa Calm     94 % 0.0 mm
19:47 6.5 °C 5.6 °C 1017.8 hPa Calm   1.6 km/h 94 % 0.0 mm
19:57 6.2 °C 5.3 °C 1017.8 hPa Calm   1.6 km/h 94 % 0.0 mm
20:02 6.1 °C 5.2 °C 1017.8 hPa Calm   1.6 km/h 94 % 0.0 mm
20:07 6.2 °C 5.5 °C 1017.8 hPa Calm   1.6 km/h 95 % 0.0 mm
20:17 6.3 °C 5.6 °C 1017.8 hPa Calm   1.6 km/h 95 % 0.0 mm
20:22 6.1 °C 5.4 °C 1017.8 hPa Calm   1.6 km/h 95 % 0.0 mm
20:32 5.8 °C 5.1 °C 1017.8 hPa Calm   1.6 km/h 95 % 0.0 mm
20:42 6.5 °C 6.1 °C 1017.5 hPa Calm   1.6 km/h 97 % 0.0 mm
20:47 6.7 °C 6.1 °C 1017.8 hPa Calm   1.6 km/h 96 % 0.0 mm
20:57 6.4 °C 5.5 °C 1017.8 hPa Calm   3.2 km/h 94 % 0.0 mm
21:12 5.3 °C 4.4 °C 1017.5 hPa Calm   1.6 km/h 94 % 0.0 mm
21:17 5.2 °C 4.3 °C 1017.5 hPa Calm   1.6 km/h 94 % 0.0 mm
21:22 5.0 °C 4.1 °C 1017.5 hPa Calm     94 % 0.0 mm
21:32 4.9 °C 4.2 °C 1017.5 hPa Calm     95 % 0.0 mm
21:52 4.9 °C 4.3 °C 1017.5 hPa Calm     96 % 0.0 mm
22:02 4.9 °C 4.3 °C 1017.5 hPa Calm     96 % 0.0 mm
22:12 4.8 °C 4.2 °C 1017.5 hPa Calm     96 % 0.0 mm
22:22 4.6 °C 4.0 °C 1017.5 hPa Calm     96 % 0.0 mm
22:42 4.5 °C 3.9 °C 1017.5 hPa Calm     96 % 0.0 mm
22:57 4.2 °C 3.6 °C 1017.2 hPa Calm   1.6 km/h 96 % 0.0 mm
23:02 4.0 °C 3.4 °C 1017.2 hPa Calm   1.6 km/h 96 % 0.0 mm
23:12 3.8 °C 3.2 °C 1017.2 hPa Calm   1.6 km/h 96 % 0.0 mm
23:32 4.0 °C 3.6 °C 1017.2 hPa Calm   1.6 km/h 97 % 0.0 mm
23:42 4.0 °C 3.6 °C 1017.2 hPa SSW 1.6 km/h 1.6 km/h 97 % 0.0 mm
23:52 4.0 °C 3.6 °C 1017.2 hPa Calm   1.6 km/h 97 % 0.0 mm
Meteo18
Compliments of Weather Underground - 4 mb

Script developed by  Jim McMurry - jmcmurry@mwt.net Adapted for the template by  Wim van der Kuil - Leuven-Template.eu

You find our weather info also at:

European Weather Network

Weather Underground

Equipment we use:

Weather-station
Davis Vue

Weather-program
Meteohub

Weather-server
Raspberry PI 2 B+

Provider
1 and 1

Davis Vue

Meteohub

Raspberry PI 2 B+

1 and 1